TAF KFYV
KFYV 270520Z 2706/2806 00000KT P6SM SKC FM271800 22011KT P6SM SKC FM280100 VRB02KT P6SM SKC=
METAR KFYV
WC KFYV
WS KFYV
WV KFYV